Time;durP1;ratioP1;P1;durP2;ratioP2;P2;SDS_P1;SDS_P2;PMS_P1;PMS_P2;Temp;Humidity;BMP_temperature;BMP_pressure;BME280_temperature;BME280_humidity;BME280_pressure;Samples;Min_cycle;Max_cycle;Signal;HPM_P1;HPM_P2
2022/12/22 07:44:35;;;;;;;32.07;16.90;;;;;;;-0.07;100.00;99245.47;6215170;23;20209;-79
2022/12/22 07:47:02;;;;;;;34.80;18.20;;;;;;;0.03;100.00;99240.06;6215553;23;20273;-79
2022/12/22 07:52:13;;;;;;;30.47;17.20;;;;;;;0.12;100.00;99222.44;6214816;23;20213;-79
2022/12/22 07:54:40;;;;;;;41.10;24.90;;;;;;;0.17;100.00;99233.31;6215802;23;20209;-79
2022/12/22 07:57:07;;;;;;;37.67;20.37;;;;;;;0.27;100.00;99237.47;6188953;23;20280;-79
2022/12/22 07:59:34;;;;;;;39.30;19.87;;;;;;;0.37;100.00;99224.13;6215568;23;20229;-79
2022/12/22 08:02:01;;;;;;;37.00;19.73;;;;;;;0.39;100.00;99230.88;6215062;23;20205;-78
2022/12/22 08:04:27;;;;;;;35.27;18.93;;;;;;;0.48;100.00;99226.41;6215908;23;20525;-79
2022/12/22 08:06:54;;;;;;;34.97;18.17;;;;;;;0.56;100.00;99242.22;6189603;23;20541;-79
2022/12/22 08:09:21;;;;;;;38.17;18.53;;;;;;;0.61;100.00;99239.09;6215571;23;20205;-79
2022/12/22 08:11:49;;;;;;;39.73;19.77;;;;;;;0.64;100.00;99242.25;6188623;23;20205;-79
2022/12/22 08:14:15;;;;;;;32.67;18.20;;;;;;;0.68;100.00;99242.72;6193687;23;20204;-78
2022/12/22 08:16:42;;;;;;;33.50;17.57;;;;;;;0.74;100.00;99239.44;6246034;23;20209;-79
2022/12/22 08:19:09;;;;;;;34.03;18.73;;;;;;;0.74;100.00;99244.72;6246051;23;20239;-78
2022/12/22 08:21:35;;;;;;;35.57;18.70;;;;;;;0.80;100.00;99238.75;6245816;23;20300;-78
2022/12/22 08:24:02;;;;;;;37.03;18.83;;;;;;;0.80;100.00;99244.84;6245928;23;20688;-79
2022/12/22 08:26:41;;;;;;;36.27;18.50;;;;;;;0.78;100.00;99243.38;6245530;23;20193;-79
2022/12/22 08:29:12;;;;;;;36.47;19.27;;;;;;;0.86;100.00;99233.66;6252814;23;20208;-79
2022/12/22 08:31:39;;;;;;;39.30;19.17;;;;;;;0.91;100.00;99224.41;6245366;23;20215;-79
2022/12/22 08:34:08;;;;;;;36.97;19.47;;;;;;;0.96;100.00;99235.28;6201114;23;20215;-78
2022/12/22 08:36:38;;;;;;;39.70;18.60;;;;;;;0.97;100.00;99239.56;6191217;23;20212;-79
2022/12/22 08:39:06;;;;;;;36.80;20.10;;;;;;;0.96;100.00;99249.28;6245372;23;20258;-79
2022/12/22 08:41:48;;;;;;;37.77;19.63;;;;;;;1.01;100.00;99244.34;6244895;23;20219;-79
2022/12/22 08:44:39;;;;;;;35.80;19.33;;;;;;;1.02;100.00;99239.88;6243504;23;20288;-78
2022/12/22 08:47:06;;;;;;;37.43;19.00;;;;;;;1.03;100.00;99244.16;6244981;23;20209;-78
2022/12/22 08:49:40;;;;;;;35.40;17.77;;;;;;;1.06;100.00;99246.47;6244499;23;20200;-78
2022/12/22 08:52:07;;;;;;;38.23;19.73;;;;;;;1.06;100.00;99241.19;6244169;23;20224;-79
2022/12/22 08:54:39;;;;;;;36.13;19.60;;;;;;;1.08;100.00;99244.47;6245080;23;20235;-79
2022/12/22 08:57:06;;;;;;;37.90;19.03;;;;;;;1.16;100.00;99245.28;6245007;23;20754;-79
2022/12/22 08:59:33;;;;;;;36.23;20.27;;;;;;;1.26;100.00;99245.09;6244963;23;20315;-78
2022/12/22 09:02:03;;;;;;;42.90;20.27;;;;;;;1.33;100.00;99232.88;6244660;23;20208;-79
2022/12/22 09:04:32;;;;;;;38.53;20.17;;;;;;;1.42;100.00;99234.47;6244503;23;20254;-79
2022/12/22 09:07:01;;;;;;;39.07;19.97;;;;;;;1.55;100.00;99231.28;6218056;23;20658;-80
2022/12/22 09:09:33;;;;;;;37.33;20.00;;;;;;;1.57;100.00;99237.22;6218676;23;20696;-79
2022/12/22 09:12:01;;;;;;;39.90;20.80;;;;;;;1.62;100.00;99241.00;6244543;23;20236;-78
2022/12/22 09:14:28;;;;;;;36.57;20.33;;;;;;;1.61;100.00;99239.34;6244282;23;20204;-79
2022/12/22 09:16:55;;;;;;;36.50;20.20;;;;;;;1.65;100.00;99245.94;6192562;23;20234;-80
2022/12/22 09:19:22;;;;;;;36.23;19.70;;;;;;;1.72;100.00;99249.56;6217970;23;20219;-78
2022/12/22 09:21:48;;;;;;;36.10;18.93;;;;;;;1.73;100.00;99253.00;6218040;23;20233;-79
2022/12/22 09:24:15;;;;;;;55.77;19.77;;;;;;;1.82;100.00;99243.22;6244149;23;20208;-78
2022/12/22 09:26:41;;;;;;;86.73;45.17;;;;;;;1.96;100.00;99242.50;6244484;23;20658;-79
2022/12/22 09:29:08;;;;;;;48.23;27.60;;;;;;;1.99;100.00;99236.84;6217945;23;20223;-79
2022/12/22 09:31:35;;;;;;;47.07;25.23;;;;;;;2.03;100.00;99233.69;6244597;23;20200;-79
2022/12/22 09:34:02;;;;;;;51.33;25.77;;;;;;;2.07;100.00;99228.88;6243082;23;20669;-77
2022/12/22 09:36:30;;;;;;;43.10;21.33;;;;;;;2.11;100.00;99243.38;6243822;23;20287;-78
2022/12/22 09:38:57;;;;;;;40.77;21.27;;;;;;;1.89;100.00;99228.31;6218254;23;20209;-78
2022/12/22 09:41:31;;;;;;;36.73;20.63;;;;;;;2.03;100.00;99222.28;6244584;23;20677;-78
2022/12/22 09:44:05;;;;;;;36.13;20.63;;;;;;;2.05;100.00;99217.66;6204841;23;20205;-78
2022/12/22 09:46:34;;;;;;;36.17;19.87;;;;;;;2.12;100.00;99216.78;6242746;23;20196;-79
2022/12/22 09:49:01;;;;;;;37.03;20.20;;;;;;;2.05;100.00;99210.53;6222979;23;20664;-79
2022/12/22 09:51:28;;;;;;;36.50;19.03;;;;;;;2.09;100.00;99189.88;6225361;23;20208;-79
2022/12/22 09:53:59;;;;;;;35.50;20.60;;;;;;;2.15;100.00;99189.16;6245931;23;20209;-79
2022/12/22 09:56:27;;;;;;;35.73;20.13;;;;;;;2.17;100.00;99174.78;6219600;23;20216;-79
2022/12/22 09:58:54;;;;;;;34.83;20.53;;;;;;;2.26;100.00;99183.47;6248641;23;20200;-80
2022/12/22 10:01:29;;;;;;;36.90;20.17;;;;;;;2.32;100.00;99177.50;6248699;23;20209;-79
2022/12/22 10:04:07;;;;;;;40.00;21.03;;;;;;;2.23;100.00;99160.06;6222134;23;20275;-80
2022/12/22 10:06:40;;;;;;;40.40;21.47;;;;;;;2.21;100.00;99164.69;6248326;23;20204;-79
2022/12/22 10:09:18;;;;;;;41.43;21.40;;;;;;;2.18;100.00;99167.69;6221565;23;20712;-79
2022/12/22 10:12:06;;;;;;;39.40;21.77;;;;;;;2.17;100.00;99166.84;6245996;23;20235;-79
2022/12/22 10:14:38;;;;;;;40.47;21.63;;;;;;;2.21;100.00;99160.22;6220431;23;20288;-78
2022/12/22 10:17:31;;;;;;;42.13;21.83;;;;;;;2.26;100.00;99150.94;6221165;23;20213;-79
2022/12/22 10:20:21;;;;;;;33.50;18.83;;;;;;;2.23;100.00;99146.84;6222658;23;20208;-79
2022/12/22 10:22:49;;;;;;;34.27;19.03;;;;;;;2.14;100.00;99139.97;6247558;23;20208;-80
2022/12/22 10:25:30;;;;;;;34.77;18.77;;;;;;;2.17;100.00;99129.03;6221117;23;20203;-79
2022/12/22 10:28:20;;;;;;;29.50;18.47;;;;;;;2.15;100.00;99139.78;6245900;23;20204;-79
2022/12/22 10:30:47;;;;;;;34.53;19.37;;;;;;;2.11;100.00;99142.94;6222728;23;20231;-79
2022/12/22 10:33:16;;;;;;;31.03;19.20;;;;;;;2.15;100.00;99139.78;6248540;23;20204;-77
2022/12/22 10:35:51;;;;;;;35.43;19.70;;;;;;;2.07;100.00;99152.22;6219613;23;20209;-79
2022/12/22 10:38:19;;;;;;;32.73;19.70;;;;;;;2.10;100.00;99147.41;6218814;23;20252;-79
2022/12/22 10:40:51;;;;;;;33.80;19.13;;;;;;;2.21;100.00;99146.19;6220710;23;20616;-79
2022/12/22 10:43:30;;;;;;;36.17;19.33;;;;;;;2.24;100.00;99137.88;6221877;23;20209;-79
2022/12/22 10:45:57;;;;;;;34.77;19.40;;;;;;;2.23;100.00;99141.56;6221698;23;20205;-79
2022/12/22 10:48:26;;;;;;;36.30;21.03;;;;;;;2.20;100.00;99153.28;6195199;23;20204;-79
2022/12/22 10:50:54;;;;;;;33.10;18.87;;;;;;;2.17;100.00;99147.53;6247322;23;20280;-79
2022/12/22 10:53:20;;;;;;;31.83;18.57;;;;;;;2.11;100.00;99154.34;6247415;23;20201;-79
2022/12/22 10:56:04;;;;;;;32.67;18.77;;;;;;;2.05;100.00;99157.69;6221857;23;20228;-80
2022/12/22 10:58:32;;;;;;;31.87;18.23;;;;;;;1.96;100.00;99148.19;6221895;23;20265;-79
2022/12/22 11:01:02;;;;;;;34.27;19.47;;;;;;;1.97;100.00;99147.19;6223287;23;20654;-79
2022/12/22 11:03:30;;;;;;;33.70;18.87;;;;;;;2.04;100.00;99134.94;6247451;23;20201;-79
2022/12/22 11:05:58;;;;;;;35.73;19.33;;;;;;;2.01;100.00;99129.97;6249758;23;20208;-80
2022/12/22 11:08:25;;;;;;;38.07;20.87;;;;;;;2.11;100.00;99125.28;6250927;23;20200;-80
2022/12/22 11:11:06;;;;;;;32.87;18.63;;;;;;;2.13;100.00;99133.03;6228550;23;20205;-80
2022/12/22 11:14:24;;;;;;;33.73;18.50;;;;;;;2.10;100.00;99131.56;6204814;23;20539;-81
2022/12/22 11:16:59;;;;;;;33.90;19.23;;;;;;;2.11;100.00;99112.06;6196835;23;20201;-80
2022/12/22 11:19:57;;;;;;;41.00;20.33;;;;;;;2.08;100.00;99114.25;6205817;23;20206;-81
2022/12/22 11:22:33;;;;;;;36.10;20.23;;;;;;;2.02;100.00;99094.63;6229012;23;20205;-80
2022/12/22 11:25:30;;;;;;;35.67;19.37;;;;;;;2.01;100.00;99087.69;6203332;23;20212;-80
2022/12/22 11:28:15;;;;;;;33.60;18.77;;;;;;;2.04;100.00;99099.75;6204330;23;20208;-80
2022/12/22 11:31:10;;;;;;;35.53;19.37;;;;;;;1.94;100.00;99100.00;6255480;23;20213;-81
2022/12/22 11:33:58;;;;;;;32.20;18.73;;;;;;;1.95;100.00;99092.91;6256636;23;20219;-80
2022/12/22 11:36:57;;;;;;;31.20;18.37;;;;;;;1.89;100.00;99091.78;6229626;23;20196;-80
2022/12/22 11:39:34;;;;;;;32.60;18.67;;;;;;;2.03;100.00;99075.16;6257686;23;20684;-81
2022/12/22 11:42:18;;;;;;;33.03;18.83;;;;;;;2.06;100.00;99082.69;6257188;23;20208;-80
2022/12/22 11:45:10;;;;;;;32.53;18.60;;;;;;;2.00;100.00;99062.31;6206662;23;20231;-81
2022/12/22 11:48:00;;;;;;;30.70;17.73;;;;;;;2.16;100.00;99064.78;6259085;23;20211;-80
2022/12/22 11:50:49;;;;;;;32.67;17.87;;;;;;;2.17;100.00;99044.47;6229938;23;20219;-81
2022/12/22 11:53:50;;;;;;;33.60;18.87;;;;;;;2.24;100.00;99045.38;6212659;23;20271;-81
2022/12/22 11:56:26;;;;;;;32.43;18.10;;;;;;;2.10;100.00;99032.97;6231518;23;20262;-81
2022/12/22 11:58:59;;;;;;;34.63;18.43;;;;;;;2.14;100.00;99042.19;6208097;23;20699;-80
2022/12/22 12:01:38;;;;;;;32.43;18.50;;;;;;;2.06;100.00;99051.00;6233541;23;20283;-81
2022/12/22 12:04:37;;;;;;;33.63;18.77;;;;;;;1.97;100.00;99053.88;6209454;23;20215;-80
2022/12/22 12:07:11;;;;;;;32.73;17.70;;;;;;;1.98;100.00;99069.56;6249442;23;20212;-81
2022/12/22 12:10:02;;;;;;;29.93;15.87;;;;;;;1.81;100.00;99075.19;6236989;23;20669;-81
2022/12/22 12:12:45;;;;;;;34.10;17.80;;;;;;;1.85;100.00;99079.91;6173241;23;20213;-81
2022/12/22 12:15:14;;;;;;;30.00;17.17;;;;;;;1.82;100.00;99085.53;6233725;23;20189;-80
2022/12/22 12:18:18;;;;;;;30.20;16.47;;;;;;;1.70;100.00;99077.22;6202976;23;20254;-81
2022/12/22 12:20:51;;;;;;;29.33;17.07;;;;;;;1.72;100.00;99079.69;6230384;23;20205;-81
2022/12/22 12:23:49;;;;;;;30.23;17.07;;;;;;;1.60;100.00;99058.16;6257586;23;20208;-81
2022/12/22 12:26:30;;;;;;;32.93;17.37;;;;;;;1.56;100.00;99048.94;6231361;23;20205;-80
2022/12/22 12:29:00;;;;;;;28.67;17.30;;;;;;;1.56;100.00;99038.38;6234068;23;20211;-81
2022/12/22 12:31:32;;;;;;;30.23;17.13;;;;;;;1.50;100.00;99025.06;6258544;23;20231;-81
2022/12/22 12:34:00;;;;;;;32.53;17.67;;;;;;;1.48;100.00;99019.16;6258818;23;20201;-81
2022/12/22 12:36:40;;;;;;;30.77;17.17;;;;;;;1.38;100.00;98997.44;6208580;23;20204;-81
2022/12/22 12:39:19;;;;;;;31.47;17.20;;;;;;;1.28;100.00;98992.38;6234615;23;20276;-81
2022/12/22 12:41:46;;;;;;;28.60;17.07;;;;;;;1.25;100.00;98977.75;6233271;23;20623;-80
2022/12/22 12:44:22;;;;;;;28.33;16.60;;;;;;;1.16;100.00;98960.31;6233909;23;20204;-80
2022/12/22 12:46:49;;;;;;;29.70;16.47;;;;;;;1.08;100.00;98959.53;6253496;23;20208;-80
2022/12/22 12:49:34;;;;;;;31.60;16.37;;;;;;;1.12;100.00;98961.66;6203763;23;20204;-80
2022/12/22 12:52:08;;;;;;;27.63;16.57;;;;;;;1.18;100.00;98957.50;6259849;23;20196;-79
2022/12/22 12:54:40;;;;;;;26.10;15.73;;;;;;;1.14;100.00;98948.28;6200593;23;20267;-80
2022/12/22 12:57:22;;;;;;;26.50;15.27;;;;;;;1.08;100.00;98946.34;6248623;23;20213;-80
2022/12/22 12:59:51;;;;;;;27.13;15.90;;;;;;;1.08;100.00;98949.81;6221619;23;20276;-80
2022/12/22 13:02:27;;;;;;;25.50;15.73;;;;;;;1.16;100.00;98959.50;6223532;23;20220;-80
2022/12/22 13:05:09;;;;;;;28.53;15.17;;;;;;;1.17;100.00;98950.56;6227713;23;20231;-80
2022/12/22 13:08:10;;;;;;;26.70;13.80;;;;;;;1.27;100.00;98946.69;6223417;23;20692;-80
2022/12/22 13:11:04;;;;;;;23.80;15.07;;;;;;;1.35;100.00;98945.84;6251805;23;20205;-80
2022/12/22 13:13:32;;;;;;;21.77;13.80;;;;;;;1.61;100.00;98940.97;6224528;23;20251;-79
2022/12/22 13:15:59;;;;;;;23.73;15.10;;;;;;;1.75;100.00;98934.91;6224271;23;20284;-79
2022/12/22 13:18:28;;;;;;;27.20;15.40;;;;;;;1.88;100.00;98930.81;6253684;23;20250;-80
2022/12/22 13:20:56;;;;;;;22.90;13.77;;;;;;;1.99;100.00;98930.38;6226302;23;20208;-81
2022/12/22 13:23:55;;;;;;;21.97;13.37;;;;;;;2.06;100.00;98929.44;6226083;23;20284;-79
2022/12/22 13:26:43;;;;;;;26.37;14.50;;;;;;;2.05;100.00;98940.22;6249133;23;20244;-80
2022/12/22 13:29:17;;;;;;;24.23;15.13;;;;;;;2.15;100.00;98931.00;6207756;23;20231;-80
2022/12/22 13:31:48;;;;;;;23.07;14.63;;;;;;;2.16;100.00;98930.00;6196694;23;20236;-79
2022/12/22 13:34:21;;;;;;;23.47;14.50;;;;;;;2.04;100.00;98938.56;6221921;23;20519;-80
2022/12/22 13:36:49;;;;;;;23.90;14.43;;;;;;;2.06;100.00;98933.91;6225031;23;20211;-79
2022/12/22 13:39:16;;;;;;;20.47;12.97;;;;;;;2.01;100.00;98928.34;6252406;23;20687;-80
2022/12/22 13:41:47;;;;;;;23.53;14.07;;;;;;;1.88;100.00;98926.34;6222825;23;20743;-79
2022/12/22 13:44:17;;;;;;;20.03;13.67;;;;;;;1.80;100.00;98937.00;6228162;23;20283;-80
2022/12/22 13:46:44;;;;;;;20.17;13.23;;;;;;;1.79;100.00;98932.72;6222268;23;20677;-80
2022/12/22 13:49:16;;;;;;;23.40;13.57;;;;;;;1.74;100.00;98925.34;6227345;23;20224;-80
2022/12/22 13:52:02;;;;;;;20.37;13.27;;;;;;;1.70;100.00;98926.69;6249477;23;20236;-80
2022/12/22 13:54:32;;;;;;;23.40;14.33;;;;;;;1.64;100.00;98934.50;6227021;23;20216;-81
2022/12/22 13:56:59;;;;;;;21.10;14.23;;;;;;;1.59;100.00;98931.56;6223879;23;20207;-80
2022/12/22 13:59:40;;;;;;;24.10;14.87;;;;;;;1.55;100.00;98938.22;6205383;23;20205;-79
2022/12/22 14:11:03;;;;;;;22.87;14.33;;;;;;;1.50;100.00;98944.03;6248827;22;20687;-81
2022/12/22 14:13:31;;;;;;;22.73;14.20;;;;;;;1.55;100.00;98951.41;6250120;23;20267;-80
2022/12/22 14:16:03;;;;;;;18.67;12.87;;;;;;;1.64;100.00;98940.59;6224681;23;20252;-79
2022/12/22 14:18:31;;;;;;;21.70;13.70;;;;;;;1.60;100.00;98947.25;6222701;23;20236;-80
2022/12/22 14:20:59;;;;;;;22.53;14.30;;;;;;;1.56;100.00;98943.34;6201936;23;20208;-80
2022/12/22 14:23:31;;;;;;;23.00;14.53;;;;;;;1.58;100.00;98941.34;6253515;23;20235;-80
2022/12/22 14:26:00;;;;;;;24.00;14.97;;;;;;;1.65;100.00;98952.00;6257821;23;20231;-80
2022/12/22 14:28:38;;;;;;;23.63;15.20;;;;;;;1.66;100.00;98943.06;6225580;23;20253;-81
2022/12/22 14:31:06;;;;;;;23.60;14.70;;;;;;;1.59;100.00;98953.53;6223530;23;20212;-80
2022/12/22 14:33:33;;;;;;;22.80;15.70;;;;;;;1.62;100.00;98955.81;6225349;23;20213;-80
2022/12/22 14:36:23;;;;;;;25.83;16.30;;;;;;;1.70;100.00;98965.47;6205416;23;20267;-81
2022/12/22 14:38:52;;;;;;;24.50;15.87;;;;;;;1.70;100.00;98957.56;6228163;23;20616;-81
2022/12/22 14:41:50;;;;;;;27.40;17.07;;;;;;;1.70;100.00;98958.38;6259186;23;20220;-80
2022/12/22 14:44:36;;;;;;;27.50;16.23;;;;;;;1.77;100.00;98938.16;6183793;23;20224;-78
2022/12/22 14:47:18;;;;;;;29.73;17.17;;;;;;;1.85;100.00;98936.47;6201774;23;20209;-80
2022/12/22 14:49:50;;;;;;;29.53;17.60;;;;;;;1.88;100.00;98921.06;6250344;23;20274;-79
2022/12/22 14:52:20;;;;;;;31.30;18.43;;;;;;;1.92;100.00;98911.78;6226030;23;20602;-80
2022/12/22 14:54:51;;;;;;;27.17;17.33;;;;;;;1.96;100.00;98913.03;6252222;23;20280;-79
2022/12/22 14:57:29;;;;;;;32.30;18.50;;;;;;;2.05;100.00;98890.81;6251320;23;20734;-81
2022/12/22 14:59:58;;;;;;;28.67;18.13;;;;;;;2.15;100.00;98885.25;6226174;23;20204;-80
2022/12/22 15:02:35;;;;;;;30.87;19.40;;;;;;;2.28;100.00;98877.50;6251391;23;20262;-81
2022/12/22 15:05:25;;;;;;;31.47;20.00;;;;;;;2.32;100.00;98877.94;6207702;23;20239;-81
2022/12/22 15:07:56;;;;;;;37.53;20.50;;;;;;;2.49;100.00;98885.47;6234117;23;20688;-79
2022/12/22 15:10:40;;;;;;;31.57;19.33;;;;;;;2.50;100.00;98876.53;6209413;23;20222;-80
2022/12/22 15:13:34;;;;;;;50.73;28.57;;;;;;;2.57;100.00;98903.03;6229723;23;20538;-81
2022/12/22 15:16:01;;;;;;;29.70;18.73;;;;;;;2.66;100.00;98912.50;6226453;23;20586;-81
2022/12/22 15:18:28;;;;;;;37.60;24.00;;;;;;;2.71;100.00;98888.16;6224392;23;20201;-80
2022/12/22 15:20:55;;;;;;;34.97;21.70;;;;;;;2.73;100.00;98904.66;6229197;23;20184;-80
2022/12/22 15:23:23;;;;;;;32.27;19.20;;;;;;;2.81;100.00;98902.72;6250274;23;20276;-80
2022/12/22 15:25:49;;;;;;;28.63;17.30;;;;;;;2.79;100.00;98912.66;6199121;23;20235;-80
2022/12/22 15:28:16;;;;;;;27.00;17.57;;;;;;;2.84;100.00;98920.03;6250380;23;20207;-79
2022/12/22 15:30:43;;;;;;;28.20;17.13;;;;;;;2.90;100.00;98930.69;6250611;23;20236;-80
2022/12/22 15:33:12;;;;;;;27.47;16.97;;;;;;;3.01;100.00;98932.84;6250374;23;20277;-80
2022/12/22 15:35:39;;;;;;;26.13;16.80;;;;;;;2.95;100.00;98928.28;6223345;23;20209;-80
2022/12/22 15:38:12;;;;;;;25.20;16.53;;;;;;;2.92;100.00;98944.56;6249620;23;20687;-79
2022/12/22 15:40:38;;;;;;;26.80;16.10;;;;;;;2.96;100.00;98955.59;6224320;23;20598;-80
2022/12/22 15:43:05;;;;;;;26.67;16.23;;;;;;;3.01;100.00;98977.00;6251019;23;20219;-79
2022/12/22 15:45:52;;;;;;;25.93;16.87;;;;;;;3.11;100.00;98990.78;6224682;23;20224;-79
2022/12/22 15:48:31;;;;;;;28.03;16.67;;;;;;;3.12;100.00;98996.88;6224385;23;20196;-80
2022/12/22 15:50:59;;;;;;;25.80;15.23;;;;;;;3.07;100.00;98971.81;6225122;23;20208;-80
2022/12/22 15:53:25;;;;;;;26.10;17.13;;;;;;;3.05;100.00;98980.91;6224414;23;20677;-80
2022/12/22 15:55:53;;;;;;;26.37;16.33;;;;;;;3.00;100.00;98999.19;6251316;23;20592;-80
2022/12/22 15:58:22;;;;;;;28.07;17.70;;;;;;;3.03;100.00;98989.03;6251148;23;20235;-80
2022/12/22 16:00:49;;;;;;;28.00;17.90;;;;;;;2.95;100.00;98991.81;6224834;23;20213;-80
2022/12/22 16:03:15;;;;;;;34.53;22.17;;;;;;;3.00;100.00;98991.25;6199889;23;20280;-80
2022/12/22 16:05:43;;;;;;;29.40;18.57;;;;;;;2.94;100.00;98990.16;6200359;23;20266;-80
2022/12/22 16:08:15;;;;;;;29.30;17.50;;;;;;;2.95;100.00;99004.22;6223200;23;20204;-81
2022/12/22 16:10:44;;;;;;;27.93;17.33;;;;;;;2.93;100.00;98987.72;6249979;23;20209;-80
2022/12/22 16:13:12;;;;;;;27.70;17.20;;;;;;;2.92;100.00;98984.25;6223875;23;20224;-81
2022/12/22 16:15:39;;;;;;;31.40;18.43;;;;;;;2.92;100.00;98988.72;6224202;23;20264;-80
2022/12/22 16:18:06;;;;;;;27.63;18.03;;;;;;;2.91;100.00;98989.72;6223391;23;20208;-82
2022/12/22 16:20:38;;;;;;;31.00;19.77;;;;;;;2.92;100.00;98980.78;6199729;23;20446;-80
2022/12/22 16:23:06;;;;;;;30.03;18.87;;;;;;;2.97;100.00;98986.34;6228119;23;20208;-80
2022/12/22 16:25:34;;;;;;;27.47;17.90;;;;;;;2.89;100.00;98984.59;6209940;23;20211;-84
2022/12/22 16:28:02;;;;;;;28.23;17.97;;;;;;;2.91;100.00;99006.41;6234018;23;20208;-83
2022/12/22 16:30:32;;;;;;;28.20;17.87;;;;;;;2.95;100.00;98993.63;6255623;23;20255;-83
2022/12/22 16:32:59;;;;;;;31.50;18.53;;;;;;;3.08;100.00;98978.72;6255797;23;20231;-82
2022/12/22 16:35:28;;;;;;;25.30;16.97;;;;;;;3.00;100.00;98983.31;6230118;23;20283;-83
2022/12/22 16:37:57;;;;;;;24.93;16.37;;;;;;;3.00;100.00;98973.53;6230323;23;20208;-83
2022/12/22 16:40:24;;;;;;;28.30;16.80;;;;;;;2.93;100.00;98972.66;6254534;23;20200;-82
2022/12/22 16:42:57;;;;;;;27.77;16.87;;;;;;;2.97;100.00;98978.41;6228881;23;20543;-83
2022/12/22 16:45:43;;;;;;;29.97;17.00;;;;;;;2.88;100.00;98980.34;6256411;23;20276;-83
2022/12/22 16:48:33;;;;;;;25.07;15.73;;;;;;;2.97;100.00;98978.41;6229305;23;20200;-83
2022/12/22 16:50:59;;;;;;;31.37;19.57;;;;;;;2.85;100.00;98962.16;6228986;23;20205;-83
2022/12/22 16:53:27;;;;;;;28.93;17.97;;;;;;;2.89;100.00;98968.72;6255921;23;20562;-82
2022/12/22 16:55:55;;;;;;;28.63;19.10;;;;;;;2.85;100.00;98966.63;6255953;23;20275;-83
2022/12/22 16:58:21;;;;;;;27.37;17.77;;;;;;;2.78;100.00;98960.47;6253082;23;20231;-83
2022/12/22 17:00:48;;;;;;;28.87;18.80;;;;;;;2.69;100.00;98965.06;6254169;23;20217;-83
2022/12/22 17:03:18;;;;;;;28.73;19.63;;;;;;;2.72;100.00;98966.50;6253257;23;20227;-82
2022/12/22 17:05:48;;;;;;;30.77;19.97;;;;;;;2.73;100.00;98962.84;6227526;23;20207;-83
2022/12/22 17:08:24;;;;;;;38.80;26.53;;;;;;;2.87;100.00;98964.63;6253319;23;20220;-82
2022/12/22 17:10:52;;;;;;;49.30;30.87;;;;;;;2.79;100.00;98967.41;6225509;23;20204;-82
2022/12/22 17:13:19;;;;;;;42.03;29.33;;;;;;;2.81;100.00;98958.25;6225754;23;20296;-82
2022/12/22 17:15:45;;;;;;;37.57;26.50;;;;;;;2.88;100.00;98959.16;6248283;23;20208;-82
2022/12/22 17:18:18;;;;;;;29.00;20.43;;;;;;;2.74;100.00;98948.63;6250112;23;20275;-82
2022/12/22 17:20:46;;;;;;;26.07;17.80;;;;;;;2.75;100.00;98937.03;6253077;23;20595;-83
2022/12/22 17:23:32;;;;;;;26.57;16.23;;;;;;;2.77;100.00;98933.19;6198642;23;20213;-82
2022/12/22 17:26:01;;;;;;;22.63;15.47;;;;;;;2.81;100.00;98928.34;6251917;23;20276;-83
2022/12/22 17:28:28;;;;;;;22.57;14.67;;;;;;;2.83;100.00;98915.75;6226920;23;20231;-82
2022/12/22 17:30:55;;;;;;;25.80;15.43;;;;;;;2.90;100.00;98914.81;6228385;23;20204;-82
2022/12/22 17:33:24;;;;;;;32.37;19.00;;;;;;;2.94;100.00;98902.84;6260482;23;20213;-83
2022/12/22 18:02:19;;;;;;;23.80;15.83;;;;;;;2.40;100.00;98907.75;6264853;22;20219;-81
2022/12/22 18:05:02;;;;;;;25.63;16.30;;;;;;;2.34;100.00;98884.69;6262867;22;20215;-81
2022/12/22 18:08:13;;;;;;;26.50;15.63;;;;;;;2.38;100.00;98896.50;6241183;23;20201;-80
2022/12/22 18:10:42;;;;;;;19.37;14.20;;;;;;;2.37;100.00;98886.97;6232740;23;20216;-79
2022/12/22 18:13:19;;;;;;;19.23;14.53;;;;;;;2.57;100.00;98910.97;6235504;23;20276;-80
2022/12/22 18:15:51;;;;;;;20.43;13.77;;;;;;;2.73;100.00;98915.22;6211896;23;20204;-80
2022/12/22 18:18:44;;;;;;;23.43;13.80;;;;;;;2.86;100.00;98916.19;6244842;22;20165;-80
2022/12/22 18:21:23;;;;;;;21.40;14.40;;;;;;;2.94;100.00;98931.94;6211815;23;20201;-80
2022/12/22 18:24:08;;;;;;;21.90;16.07;;;;;;;3.16;100.00;98953.97;6199821;22;20180;-82
2022/12/22 18:27:31;;;;;;;24.57;16.03;;;;;;;3.22;100.00;98950.53;6251602;23;20244;-82
